Time;durP1;ratioP1;P1;durP2;ratioP2;P2;SDS_P1;SDS_P2;PMS_P1;PMS_P2;Temp;Humidity;BMP_temperature;BMP_pressure;BME280_temperature;BME280_humidity;BME280_pressure;Samples;Min_cycle;Max_cycle;Signal;HPM_P1;HPM_P2
2021/03/13 05:01:05;;;;;;;17.42;10.90;;;4.40;99.90;;;;;;5627654;23;20325;-70
2021/03/13 05:03:31;;;;;;;17.30;12.07;;;4.40;99.90;;;;;;4933843;29;20540;-72
2021/03/13 05:05:57;;;;;;;24.45;11.63;;;4.40;99.90;;;;;;4928084;29;20214;-72
2021/03/13 05:08:23;;;;;;;22.88;12.77;;;4.50;99.90;;;;;;4916278;29;20211;-70
2021/03/13 05:10:50;;;;;;;15.30;11.00;;;4.50;99.90;;;;;;4928403;29;20220;-71
2021/03/13 05:13:16;;;;;;;20.20;11.23;;;4.50;99.90;;;;;;4953889;28;20272;-71
2021/03/13 05:15:42;;;;;;;20.45;12.00;;;4.50;99.90;;;;;;4952004;29;20301;-71
2021/03/13 05:18:09;;;;;;;17.20;11.27;;;4.50;99.90;;;;;;4953314;28;20221;-72
2021/03/13 05:20:36;;;;;;;23.13;11.70;;;4.50;99.90;;;;;;4950595;29;20229;-72
2021/03/13 05:23:02;;;;;;;16.70;11.63;;;4.50;99.90;;;;;;4938463;29;20226;-72
2021/03/13 05:25:28;;;;;;;18.88;10.77;;;4.60;99.90;;;;;;4947797;29;20610;-70
2021/03/13 05:27:54;;;;;;;23.15;11.85;;;4.50;99.90;;;;;;4938652;29;20236;-70
2021/03/13 05:30:21;;;;;;;19.52;11.10;;;4.60;99.90;;;;;;4947650;29;20574;-70
2021/03/13 05:32:48;;;;;;;21.65;12.45;;;4.60;99.90;;;;;;4937492;29;20233;-70
2021/03/13 05:35:15;;;;;;;19.45;11.15;;;4.60;99.90;;;;;;4947879;29;20624;-70
2021/03/13 05:37:41;;;;;;;20.52;12.32;;;4.60;99.90;;;;;;4938271;29;20305;-71
2021/03/13 05:40:10;;;;;;;30.15;13.57;;;4.70;99.90;;;;;;4946164;29;20235;-72
2021/03/13 05:42:37;;;;;;;20.50;12.18;;;4.70;99.90;;;;;;4957821;29;20240;-71
2021/03/13 05:45:05;;;;;;;16.83;10.85;;;4.70;99.90;;;;;;4954437;28;20265;-70
2021/03/13 05:47:32;;;;;;;16.60;10.68;;;4.70;99.90;;;;;;4957193;29;20213;-70
2021/03/13 05:50:03;;;;;;;17.30;9.70;;;4.80;99.90;;;;;;4940047;29;20608;-70
2021/03/13 05:52:33;;;;;;;18.63;11.07;;;4.80;99.90;;;;;;4944271;29;20225;-70
2021/03/13 05:55:00;;;;;;;17.58;11.45;;;4.80;99.90;;;;;;4950721;29;20256;-70
2021/03/13 05:57:27;;;;;;;16.98;10.45;;;4.80;99.90;;;;;;4957385;29;20228;-71
2021/03/13 05:59:53;;;;;;;19.55;11.32;;;4.90;99.90;;;;;;4943655;29;20327;-70
2021/03/13 06:02:20;;;;;;;19.50;11.32;;;4.90;99.90;;;;;;4920853;29;20226;-70
2021/03/13 06:04:46;;;;;;;16.58;10.68;;;4.90;99.90;;;;;;4937856;29;20206;-70
2021/03/13 06:07:14;;;;;;;18.85;9.43;;;4.90;99.90;;;;;;4955659;29;20213;-71
2021/03/13 06:09:41;;;;;;;14.10;10.73;;;5.00;99.90;;;;;;4947460;29;20202;-71
2021/03/13 06:12:09;;;;;;;13.23;9.02;;;5.00;99.90;;;;;;4953895;28;20232;-70
2021/03/13 06:14:35;;;;;;;17.38;10.90;;;5.00;99.90;;;;;;4949687;29;20292;-71
2021/03/13 06:17:02;;;;;;;17.48;9.38;;;5.00;99.90;;;;;;4952111;29;20216;-70
2021/03/13 06:19:47;;;;;;;12.65;10.27;;;5.10;99.90;;;;;;4949332;29;20289;-70
2021/03/13 06:22:33;;;;;;;16.77;9.40;;;5.10;99.90;;;;;;4956293;29;20280;-70
2021/03/13 06:25:25;;;;;;;14.90;8.20;;;5.10;99.90;;;;;;4927521;29;20198;-71
2021/03/13 06:28:19;;;;;;;11.85;8.10;;;5.20;99.90;;;;;;4942846;28;20221;-73
2021/03/13 06:30:47;;;;;;;11.32;8.52;;;5.20;99.90;;;;;;4931736;29;20329;-71
2021/03/13 06:33:21;;;;;;;15.43;8.25;;;5.20;99.90;;;;;;4936085;29;20225;-71
2021/03/13 06:35:47;;;;;;;11.32;7.80;;;5.20;99.90;;;;;;4947129;29;20667;-71
2021/03/13 06:38:15;;;;;;;16.88;8.05;;;5.30;99.90;;;;;;4945148;29;20214;-71
2021/03/13 06:40:43;;;;;;;10.80;7.60;;;5.30;99.90;;;;;;4945643;29;20225;-71
2021/03/13 06:43:24;;;;;;;14.93;7.20;;;5.30;99.90;;;;;;4951687;29;20229;-71
2021/03/13 06:45:59;;;;;;;7.10;6.40;;;5.30;99.90;;;;;;4946121;29;20213;-71
2021/03/13 06:48:33;;;;;;;12.55;6.43;;;5.30;99.90;;;;;;4939604;28;20239;-71
2021/03/13 06:51:23;;;;;;;7.75;6.95;;;5.30;99.90;;;;;;4939190;29;20221;-70
2021/03/13 06:54:04;;;;;;;9.95;5.72;;;5.40;99.90;;;;;;4936959;29;20265;-71
2021/03/13 06:56:33;;;;;;;8.65;6.40;;;5.40;99.90;;;;;;4950660;29;20205;-70
2021/03/13 06:59:01;;;;;;;5.00;4.20;;;5.40;99.90;;;;;;4940113;29;20202;-72
2021/03/13 07:01:29;;;;;;;7.07;5.82;;;5.40;99.90;;;;;;4948662;29;20237;-70
2021/03/13 07:03:56;;;;;;;5.05;4.55;;;5.40;99.90;;;;;;4938450;29;20206;-71
2021/03/13 07:06:23;;;;;;;4.72;4.22;;;5.40;99.90;;;;;;4936915;29;20269;-70
2021/03/13 07:08:50;;;;;;;6.28;5.20;;;5.40;99.90;;;;;;4940837;29;20201;-70
2021/03/13 07:11:19;;;;;;;5.93;4.43;;;5.40;99.90;;;;;;4944047;29;20242;-69
2021/03/13 07:13:48;;;;;;;4.93;4.43;;;5.40;99.90;;;;;;4951908;29;20206;-69
2021/03/13 07:16:36;;;;;;;5.07;4.50;;;5.40;99.90;;;;;;4936298;29;20209;-69
2021/03/13 07:19:04;;;;;;;7.03;4.50;;;5.40;99.90;;;;;;4933542;29;20210;-69
2021/03/13 07:21:32;;;;;;;4.30;4.00;;;5.50;99.90;;;;;;4936186;29;20225;-70
2021/03/13 07:24:03;;;;;;;3.92;3.70;;;5.50;99.90;;;;;;4937006;29;20209;-70
2021/03/13 07:26:36;;;;;;;3.40;3.25;;;5.50;99.90;;;;;;4935766;29;20214;-69
2021/03/13 07:29:05;;;;;;;5.97;3.83;;;5.50;99.90;;;;;;4937370;29;20313;-69
2021/03/13 07:31:35;;;;;;;3.75;3.45;;;5.50;99.90;;;;;;4935933;29;20241;-69
2021/03/13 07:34:04;;;;;;;3.67;3.55;;;5.50;99.90;;;;;;4951459;29;20198;-69
2021/03/13 07:36:33;;;;;;;3.22;3.13;;;5.50;99.90;;;;;;4936684;29;20217;-69
2021/03/13 07:39:05;;;;;;;3.83;3.53;;;5.50;99.90;;;;;;4943327;29;20220;-69
2021/03/13 07:41:37;;;;;;;3.40;3.17;;;5.50;99.90;;;;;;4935719;29;20234;-69
2021/03/13 07:44:06;;;;;;;3.60;3.40;;;5.50;99.90;;;;;;4950459;29;20209;-69
2021/03/13 07:46:33;;;;;;;3.13;2.90;;;5.50;99.90;;;;;;4936168;29;20237;-69
2021/03/13 07:49:00;;;;;;;3.45;3.25;;;5.50;99.90;;;;;;4937345;29;20349;-69
2021/03/13 07:51:27;;;;;;;3.80;3.50;;;5.60;99.90;;;;;;4935330;29;20221;-69
2021/03/13 07:53:54;;;;;;;5.00;4.60;;;5.60;99.90;;;;;;4934480;29;20206;-69
2021/03/13 07:56:20;;;;;;;4.47;4.18;;;5.60;99.90;;;;;;4935827;29;20217;-69
2021/03/13 07:58:46;;;;;;;19.92;14.18;;;5.60;99.90;;;;;;4935507;29;20206;-70
2021/03/13 08:01:14;;;;;;;16.27;10.60;;;5.60;99.90;;;;;;4935675;29;20297;-68
2021/03/13 08:05:23;;;;;;;45.13;19.90;;;5.70;99.90;;;;;;5130093;27;20652;-69
2021/03/13 08:07:58;;;;;;;25.65;13.43;;;5.70;99.90;;;;;;5129766;27;20264;-69
2021/03/13 08:10:53;;;;;;;6.57;6.07;;;5.70;99.90;;;;;;5129960;27;20600;-68
2021/03/13 08:13:53;;;;;;;4.22;4.00;;;5.70;99.90;;;;;;5113366;27;20195;-68
2021/03/13 08:16:32;;;;;;;15.93;12.45;;;5.80;99.90;;;;;;5110648;28;20226;-70
2021/03/13 08:18:58;;;;;;;4.30;4.00;;;5.80;99.90;;;;;;5110574;28;20211;-70
2021/03/13 08:21:42;;;;;;;5.45;4.40;;;5.80;99.90;;;;;;5121661;28;20219;-70
2021/03/13 08:24:08;;;;;;;4.10;3.85;;;5.80;99.90;;;;;;5123442;27;20287;-70
2021/03/13 08:27:08;;;;;;;4.13;3.85;;;5.80;99.90;;;;;;5116809;28;20245;-70
2021/03/13 08:29:55;;;;;;;4.93;4.45;;;5.80;99.90;;;;;;5129632;27;20722;-70
2021/03/13 08:33:05;;;;;;;4.25;2.83;;;5.80;99.90;;;;;;5127348;27;20278;-70
2021/03/13 08:35:47;;;;;;;3.35;3.10;;;5.90;99.90;;;;;;5114834;28;20191;-69
2021/03/13 08:38:16;;;;;;;6.32;5.88;;;5.80;99.90;;;;;;5117721;27;20199;-69
2021/03/13 08:40:53;;;;;;;4.75;4.35;;;5.80;99.90;;;;;;5107417;27;20216;-69
2021/03/13 08:43:59;;;;;;;2.78;2.67;;;5.90;99.90;;;;;;5108701;28;20220;-69
2021/03/13 08:46:44;;;;;;;3.97;3.78;;;5.90;99.90;;;;;;5122120;28;20666;-69
2021/03/13 08:49:12;;;;;;;3.30;3.15;;;5.90;99.90;;;;;;5126363;27;20257;-69
2021/03/13 08:51:38;;;;;;;1.95;1.95;;;6.00;99.90;;;;;;5126122;27;20231;-70
2021/03/13 08:54:05;;;;;;;3.03;2.90;;;6.00;99.90;;;;;;5129069;27;20199;-69
2021/03/13 08:56:43;;;;;;;4.25;3.88;;;6.00;99.90;;;;;;5128074;27;20318;-70
2021/03/13 08:59:16;;;;;;;3.28;3.10;;;6.00;99.90;;;;;;5129394;27;20604;-69
2021/03/13 09:01:45;;;;;;;3.20;3.00;;;6.10;99.90;;;;;;5119329;27;20307;-69
2021/03/13 09:04:12;;;;;;;2.13;2.03;;;6.10;99.90;;;;;;5107849;27;20215;-70
2021/03/13 09:06:40;;;;;;;2.60;2.28;;;6.10;99.90;;;;;;5122068;28;20225;-70
2021/03/13 09:09:16;;;;;;;2.50;2.40;;;6.20;99.90;;;;;;5128573;27;20192;-70
2021/03/13 09:11:44;;;;;;;2.70;2.60;;;6.20;99.90;;;;;;5116483;27;20227;-70
2021/03/13 09:14:12;;;;;;;2.40;2.30;;;6.20;99.90;;;;;;5111387;28;20199;-70
2021/03/13 09:16:40;;;;;;;3.60;3.40;;;6.20;99.90;;;;;;5107156;27;20200;-70
2021/03/13 09:19:08;;;;;;;1.50;1.50;;;6.30;99.90;;;;;;5096241;28;20201;-70
2021/03/13 09:21:46;;;;;;;3.03;2.92;;;6.30;99.90;;;;;;5104080;28;20224;-71
2021/03/13 09:24:16;;;;;;;4.53;4.22;;;6.30;99.90;;;;;;5096180;28;20216;-70
2021/03/13 09:26:47;;;;;;;4.32;4.13;;;6.30;99.90;;;;;;5114608;28;20249;-71
2021/03/13 09:29:13;;;;;;;1.80;1.70;;;6.40;99.90;;;;;;5113775;28;20208;-70
2021/03/13 09:31:39;;;;;;;2.65;2.55;;;6.50;99.90;;;;;;5102841;28;20220;-71
2021/03/13 09:34:20;;;;;;;2.90;2.70;;;6.50;99.90;;;;;;5095220;28;20199;-69
2021/03/13 09:36:46;;;;;;;3.03;2.65;;;6.50;99.90;;;;;;5094264;28;20208;-71
2021/03/13 09:39:20;;;;;;;2.65;2.55;;;6.60;99.90;;;;;;5094819;28;20258;-71
2021/03/13 09:42:01;;;;;;;2.95;2.85;;;6.70;99.90;;;;;;5106032;28;20246;-72
2021/03/13 09:44:32;;;;;;;2.40;2.30;;;6.70;99.90;;;;;;5114423;28;20232;-70
2021/03/13 09:46:58;;;;;;;2.85;2.75;;;6.80;99.90;;;;;;5116057;28;20211;-70
2021/03/13 09:49:25;;;;;;;2.20;2.20;;;6.80;99.90;;;;;;5116193;28;20207;-70
2021/03/13 09:51:51;;;;;;;2.65;2.55;;;6.80;99.90;;;;;;5106914;27;20264;-70
2021/03/13 09:54:19;;;;;;;1.75;1.75;;;6.90;99.90;;;;;;5106711;28;20588;-71
2021/03/13 09:56:45;;;;;;;1.90;1.80;;;6.90;99.90;;;;;;5113427;27;20199;-70
2021/03/13 09:59:12;;;;;;;1.83;1.80;;;6.90;99.90;;;;;;5114344;28;20200;-71
2021/03/13 10:01:38;;;;;;;1.38;1.38;;;7.00;99.90;;;;;;5111298;28;20215;-71
2021/03/13 10:04:06;;;;;;;1.30;1.30;;;7.00;99.90;;;;;;5107792;28;20672;-69
2021/03/13 10:06:32;;;;;;;1.10;1.10;;;7.10;99.90;;;;;;5094255;28;20546;-71
2021/03/13 10:08:59;;;;;;;0.70;0.70;;;7.10;99.90;;;;;;5103618;28;20266;-69
2021/03/13 10:11:39;;;;;;;0.70;0.70;;;7.10;99.90;;;;;;5104082;28;20215;-70
2021/03/13 10:14:05;;;;;;;2.65;1.02;;;7.20;99.90;;;;;;5098891;27;20196;-70
2021/03/13 10:16:32;;;;;;;0.80;0.80;;;7.20;99.90;;;;;;5107382;28;20203;-69
2021/03/13 10:18:58;;;;;;;0.80;0.80;;;7.20;99.90;;;;;;5102125;28;20203;-68
2021/03/13 10:21:24;;;;;;;0.73;0.73;;;7.20;99.90;;;;;;5102269;28;20285;-69
2021/03/13 10:23:58;;;;;;;0.57;0.57;;;7.20;99.90;;;;;;5106040;28;20642;-69
2021/03/13 10:26:27;;;;;;;4.30;1.05;;;7.20;99.90;;;;;;5096853;28;20215;-70
2021/03/13 10:28:55;;;;;;;1.38;1.30;;;7.20;99.90;;;;;;5098941;28;20209;-69
2021/03/13 10:31:28;;;;;;;1.05;0.75;;;7.20;99.90;;;;;;5099089;28;20228;-70
2021/03/13 10:33:54;;;;;;;3.95;1.75;;;7.20;99.90;;;;;;5107288;28;20196;-71
2021/03/13 10:36:22;;;;;;;1.48;1.00;;;7.20;99.90;;;;;;5099902;28;20575;-70
2021/03/13 10:38:50;;;;;;;1.50;0.82;;;7.20;99.90;;;;;;5097966;28;20211;-70
2021/03/13 10:41:20;;;;;;;1.25;0.90;;;7.20;99.90;;;;;;5108600;28;20231;-71
2021/03/13 10:43:47;;;;;;;1.27;1.27;;;7.20;99.90;;;;;;5113580;28;20245;-70
2021/03/13 10:46:17;;;;;;;0.73;0.73;;;7.30;99.90;;;;;;5112313;28;20208;-71
2021/03/13 10:49:05;;;;;;;0.93;0.85;;;7.30;99.90;;;;;;5112015;28;20591;-70
2021/03/13 10:51:35;;;;;;;3.00;1.05;;;7.40;99.90;;;;;;5106929;28;20220;-71
2021/03/13 10:54:02;;;;;;;1.00;1.00;;;7.40;99.90;;;;;;5112597;28;20208;-71
2021/03/13 10:56:39;;;;;;;0.70;0.70;;;7.50;99.90;;;;;;5113101;28;20207;-71
2021/03/13 10:59:05;;;;;;;1.77;1.00;;;7.60;99.90;;;;;;5110406;28;20536;-71
2021/03/13 11:01:32;;;;;;;2.13;1.70;;;7.60;99.90;;;;;;5093298;28;20596;-71
2021/03/13 11:03:59;;;;;;;1.00;1.00;;;7.60;99.90;;;;;;5103056;28;20231;-70
2021/03/13 11:06:27;;;;;;;2.53;1.05;;;7.70;99.90;;;;;;5092660;28;20269;-70
2021/03/13 11:08:54;;;;;;;1.58;1.13;;;7.70;99.90;;;;;;5105791;27;20215;-70
2021/03/13 11:11:20;;;;;;;2.97;0.80;;;7.70;99.90;;;;;;5092558;28;20289;-70
2021/03/13 11:13:47;;;;;;;1.50;1.40;;;7.70;99.90;;;;;;5109220;28;20195;-71
2021/03/13 11:16:13;;;;;;;1.17;1.08;;;7.70;99.90;;;;;;5112133;28;20207;-70
2021/03/13 11:18:41;;;;;;;1.88;1.50;;;7.70;99.90;;;;;;5111708;28;20261;-70
2021/03/13 11:21:07;;;;;;;5.40;1.60;;;7.70;99.90;;;;;;5112617;27;20281;-69
2021/03/13 11:23:33;;;;;;;1.05;0.90;;;7.60;99.90;;;;;;5111674;28;20219;-70
2021/03/13 11:26:00;;;;;;;1.60;1.48;;;7.60;99.90;;;;;;5112959;28;20224;-70
2021/03/13 11:28:26;;;;;;;2.33;1.35;;;7.60;99.90;;;;;;5111144;28;20663;-70
2021/03/13 11:30:52;;;;;;;3.53;1.60;;;7.70;99.90;;;;;;5112186;27;20537;-70
2021/03/13 11:33:18;;;;;;;3.47;2.35;;;7.70;99.90;;;;;;5100299;28;20211;-70
2021/03/13 11:35:46;;;;;;;6.28;2.00;;;7.70;99.90;;;;;;5110002;28;20293;-70
2021/03/13 11:38:12;;;;;;;2.58;1.35;;;7.80;99.90;;;;;;5103611;28;20613;-71
2021/03/13 11:40:40;;;;;;;2.85;1.17;;;7.90;99.90;;;;;;5091631;28;20224;-70
2021/03/13 11:43:06;;;;;;;1.60;1.50;;;8.00;99.90;;;;;;5091566;28;20204;-70
2021/03/13 11:45:32;;;;;;;3.33;1.63;;;8.00;99.90;;;;;;5091732;28;20562;-70
2021/03/13 11:47:59;;;;;;;1.98;1.77;;;8.10;99.90;;;;;;5096538;28;20200;-70
2021/03/13 11:50:27;;;;;;;1.90;1.80;;;8.20;99.90;;;;;;5107486;28;20608;-70
2021/03/13 11:52:56;;;;;;;1.60;1.60;;;8.20;99.90;;;;;;5090658;28;20208;-71
2021/03/13 11:55:23;;;;;;;1.55;1.45;;;8.30;99.90;;;;;;5092176;28;20219;-71
2021/03/13 11:57:50;;;;;;;1.75;1.65;;;8.40;99.90;;;;;;5095742;28;20196;-71
2021/03/13 12:00:17;;;;;;;4.15;3.78;;;8.50;99.90;;;;;;5112657;28;20222;-70
2021/03/13 12:02:43;;;;;;;1.23;1.23;;;8.60;99.90;;;;;;5111035;28;20328;-70
2021/03/13 12:05:10;;;;;;;3.63;1.63;;;8.70;99.90;;;;;;5110506;28;20231;-70
2021/03/13 12:07:37;;;;;;;4.68;1.63;;;8.80;99.90;;;;;;5091741;28;20223;-71
2021/03/13 12:10:05;;;;;;;1.90;1.70;;;8.80;99.90;;;;;;5092176;28;20269;-71
2021/03/13 12:12:31;;;;;;;2.20;2.10;;;8.80;99.90;;;;;;5090722;28;20267;-71
2021/03/13 12:14:58;;;;;;;3.38;2.70;;;8.80;99.90;;;;;;5092209;28;20250;-71
2021/03/13 12:17:24;;;;;;;1.98;1.88;;;8.80;99.90;;;;;;5110552;28;20208;-72
2021/03/13 12:19:50;;;;;;;4.85;2.40;;;9.00;99.90;;;;;;5112297;28;20215;-71
2021/03/13 12:22:17;;;;;;;4.78;2.13;;;9.00;99.90;;;;;;5111075;27;20257;-71
2021/03/13 12:24:43;;;;;;;5.28;2.75;;;9.00;99.90;;;;;;5112106;28;20223;-71
2021/03/13 12:27:11;;;;;;;2.30;2.10;;;9.10;99.90;;;;;;5100163;28;20221;-71
2021/03/13 12:29:37;;;;;;;3.15;2.80;;;9.20;99.90;;;;;;5112336;28;20203;-71
2021/03/13 12:32:04;;;;;;;2.30;2.10;;;9.20;99.90;;;;;;5110023;28;20384;-71
2021/03/13 12:34:30;;;;;;;3.00;2.10;;;9.30;99.90;;;;;;5111312;27;20208;-71
2021/03/13 12:36:56;;;;;;;2.88;2.65;;;9.40;99.90;;;;;;5095879;28;20200;-70
2021/03/13 12:39:23;;;;;;;2.15;1.90;;;9.30;99.90;;;;;;5091480;28;20211;-70
2021/03/13 12:41:49;;;;;;;4.80;2.25;;;9.30;99.90;;;;;;5091265;28;20592;-70
2021/03/13 12:44:16;;;;;;;4.68;2.60;;;9.20;99.90;;;;;;5091011;28;20224;-71
2021/03/13 12:46:42;;;;;;;4.95;2.80;;;9.10;99.90;;;;;;5096619;28;20205;-71
2021/03/13 12:49:09;;;;;;;5.60;1.95;;;9.00;99.90;;;;;;5096274;28;20591;-71
2021/03/13 12:51:36;;;;;;;5.30;2.92;;;8.80;99.90;;;;;;5100967;28;20231;-71
2021/03/13 12:54:02;;;;;;;2.55;2.00;;;8.60;99.90;;;;;;5095015;28;20228;-70
2021/03/13 12:56:28;;;;;;;5.38;2.67;;;8.50;99.90;;;;;;5106791;28;20574;-69
2021/03/13 12:58:54;;;;;;;4.35;2.15;;;8.40;99.90;;;;;;5113630;28;20196;-68
2021/03/13 13:01:21;;;;;;;3.42;1.23;;;8.20;99.90;;;;;;5113136;28;20215;-68
2021/03/13 13:03:54;;;;;;;6.63;2.70;;;8.10;99.90;;;;;;5097717;28;20240;-68
2021/03/13 13:06:20;;;;;;;2.03;1.98;;;8.00;99.90;;;;;;5104609;28;20211;-68
2021/03/13 13:08:46;;;;;;;3.05;1.77;;;8.00;99.90;;;;;;5105611;28;20539;-68
2021/03/13 13:11:13;;;;;;;1.10;1.10;;;7.90;99.90;;;;;;5110458;28;20567;-69
2021/03/13 13:13:39;;;;;;;2.25;2.05;;;8.00;99.90;;;;;;5112810;28;20215;-70
2021/03/13 13:16:06;;;;;;;1.50;1.13;;;7.90;99.90;;;;;;5114071;28;20196;-70
2021/03/13 13:18:33;;;;;;;5.45;3.35;;;7.90;99.90;;;;;;5114156;28;20243;-70
2021/03/13 13:21:00;;;;;;;1.52;1.50;;;8.00;99.90;;;;;;5114988;28;20226;-70
2021/03/13 13:23:26;;;;;;;5.35;2.08;;;8.00;99.90;;;;;;5113597;27;20222;-69
2021/03/13 13:25:52;;;;;;;2.33;2.22;;;8.00;99.90;;;;;;5113645;28;20610;-67
2021/03/13 13:28:19;;;;;;;1.92;1.25;;;8.00;99.90;;;;;;5103588;28;20203;-72
2021/03/13 13:30:45;;;;;;;1.75;1.70;;;8.00;99.90;;;;;;5111760;28;20276;-68
2021/03/13 13:33:11;;;;;;;2.03;1.23;;;8.10;99.90;;;;;;5112387;28;20211;-69
2021/03/13 13:35:39;;;;;;;1.40;1.30;;;8.10;99.90;;;;;;5106556;28;20257;-69
2021/03/13 13:38:05;;;;;;;1.70;1.60;;;8.00;99.90;;;;;;5107549;28;20297;-69
2021/03/13 13:40:33;;;;;;;2.17;1.35;;;8.00;99.90;;;;;;5113026;28;20220;-70
2021/03/13 13:43:00;;;;;;;1.65;1.55;;;7.90;99.90;;;;;;5113192;28;20192;-69
2021/03/13 13:45:26;;;;;;;1.98;1.50;;;7.90;99.90;;;;;;5101777;28;20224;-69
2021/03/13 13:47:52;;;;;;;1.75;1.65;;;7.90;99.90;;;;;;5113400;27;20196;-70
2021/03/13 13:50:20;;;;;;;2.95;2.30;;;8.00;99.90;;;;;;5114193;28;20668;-69
2021/03/13 13:52:48;;;;;;;2.30;1.95;;;8.00;99.90;;;;;;5113082;28;20203;-70
2021/03/13 13:55:16;;;;;;;4.80;2.70;;;8.00;99.90;;;;;;5112291;28;20196;-69
2021/03/13 13:57:43;;;;;;;6.00;3.55;;;8.00;99.90;;;;;;5113631;28;20677;-69
2021/03/13 14:00:12;;;;;;;1.77;1.65;;;8.10;99.90;;;;;;5114065;28;20244;-70
2021/03/13 14:02:38;;;;;;;2.33;1.52;;;8.10;99.90;;;;;;5098677;28;20563;-70
2021/03/13 14:05:07;;;;;;;2.03;1.67;;;8.00;99.90;;;;;;5113234;28;20228;-70
2021/03/13 14:07:33;;;;;;;1.80;1.70;;;8.00;99.90;;;;;;5103463;28;20203;-70
2021/03/13 14:10:00;;;;;;;1.60;1.50;;;8.00;99.90;;;;;;5106579;28;20245;-70
2021/03/13 14:12:27;;;;;;;1.40;1.40;;;8.00;99.90;;;;;;5110212;28;20219;-70
2021/03/13 14:14:53;;;;;;;6.10;1.80;;;8.00;99.90;;;;;;5112129;28;20199;-70
2021/03/13 14:17:19;;;;;;;3.25;2.35;;;8.10;99.90;;;;;;5112443;28;20196;-70
2021/03/13 14:19:45;;;;;;;2.90;2.05;;;8.10;99.90;;;;;;5114107;28;20520;-72
2021/03/13 14:22:11;;;;;;;1.90;1.80;;;8.30;99.90;;;;;;5107022;27;20216;-72
2021/03/13 14:24:38;;;;;;;2.35;1.65;;;8.40;99.90;;;;;;5114211;28;20226;-70
2021/03/13 14:27:06;;;;;;;2.47;1.67;;;8.40;99.90;;;;;;5112400;28;20276;-71
2021/03/13 14:29:33;;;;;;;3.92;1.58;;;8.50;99.90;;;;;;5113957;28;20207;-71
2021/03/13 14:32:00;;;;;;;2.08;1.90;;;8.60;99.90;;;;;;5105284;28;20216;-71
2021/03/13 14:34:26;;;;;;;2.58;1.42;;;8.60;99.90;;;;;;5113051;27;20612;-71
2021/03/13 14:36:53;;;;;;;1.58;1.52;;;8.70;99.90;;;;;;5098432;28;20288;-72
2021/03/13 14:39:19;;;;;;;3.50;2.13;;;8.60;99.90;;;;;;5093137;28;20664;-71
2021/03/13 14:41:47;;;;;;;2.35;2.25;;;8.60;99.90;;;;;;5095009;28;20272;-72
2021/03/13 14:44:14;;;;;;;0.98;0.95;;;8.60;99.90;;;;;;5093673;28;20660;-72
2021/03/13 14:46:41;;;;;;;2.70;2.00;;;8.60;99.90;;;;;;5105510;28;20584;-73
2021/03/13 14:49:08;;;;;;;4.72;1.80;;;8.50;99.90;;;;;;5108107;28;20575;-73
2021/03/13 14:51:35;;;;;;;3.22;1.10;;;8.40;99.90;;;;;;5094333;28;20219;-73
2021/03/13 14:54:01;;;;;;;1.35;1.20;;;8.40;99.90;;;;;;5096708;28;20648;-73
2021/03/13 14:56:27;;;;;;;3.38;2.33;;;8.30;99.90;;;;;;5093069;28;20266;-73
2021/03/13 14:58:54;;;;;;;2.90;2.70;;;8.30;99.90;;;;;;5095728;28;20212;-72
2021/03/13 15:01:21;;;;;;;2.38;1.20;;;8.20;99.90;;;;;;5103841;28;20272;-74
2021/03/13 15:03:47;;;;;;;4.10;1.45;;;8.10;99.90;;;;;;5110740;28;20219;-73
2021/03/13 15:06:13;;;;;;;2.55;1.52;;;8.10;99.90;;;;;;5092460;28;20200;-73
2021/03/13 15:08:39;;;;;;;2.97;1.40;;;8.00;99.90;;;;;;5104913;28;20230;-72
2021/03/13 15:11:05;;;;;;;1.38;1.20;;;8.00;99.90;;;;;;5103539;28;20280;-71
2021/03/13 15:13:34;;;;;;;1.90;1.80;;;8.00;99.90;;;;;;5102348;28;20204;-71
2021/03/13 15:16:00;;;;;;;1.90;1.80;;;8.00;99.90;;;;;;5112782;28;20211;-72
2021/03/13 15:18:28;;;;;;;2.03;1.73;;;7.90;99.90;;;;;;5101151;28;20323;-70
2021/03/13 15:20:54;;;;;;;2.67;1.98;;;7.80;99.90;;;;;;5099502;28;20245;-71
2021/03/13 15:23:20;;;;;;;5.93;2.13;;;7.70;99.90;;;;;;5103704;28;20216;-72
2021/03/13 15:25:48;;;;;;;4.22;1.88;;;7.60;99.90;;;;;;5092792;28;20232;-72
2021/03/13 15:28:14;;;;;;;2.05;1.90;;;7.50;99.90;;;;;;5099601;28;20210;-71
2021/03/13 15:30:40;;;;;;;3.03;1.83;;;7.30;99.90;;;;;;5108970;28;20217;-71
2021/03/13 15:33:07;;;;;;;4.68;1.42;;;7.20;99.90;;;;;;5101299;28;20523;-70
2021/03/13 15:35:34;;;;;;;2.00;1.77;;;7.20;99.90;;;;;;5114065;28;20206;-71
2021/03/13 15:38:00;;;;;;;3.38;1.73;;;7.10;99.90;;;;;;5106091;28;20211;-71
2021/03/13 15:40:27;;;;;;;2.25;2.15;;;7.00;99.90;;;;;;5095306;28;20224;-71
2021/03/13 15:42:53;;;;;;;1.90;1.70;;;7.00;99.90;;;;;;5092302;28;20200;-71
2021/03/13 15:45:21;;;;;;;2.58;2.38;;;7.00;99.90;;;;;;5094377;28;20220;-71
2021/03/13 15:47:47;;;;;;;1.50;1.40;;;6.90;99.90;;;;;;5092192;28;20633;-71
2021/03/13 15:50:15;;;;;;;1.60;1.50;;;6.80;99.90;;;;;;5106113;27;20260;-71
2021/03/13 15:52:43;;;;;;;2.47;2.10;;;6.70;99.90;;;;;;5096205;28;20266;-70
2021/03/13 15:55:11;;;;;;;2.75;1.83;;;6.60;99.90;;;;;;5109568;28;20214;-70
2021/03/13 15:57:37;;;;;;;2.28;1.48;;;6.60;99.90;;;;;;5098402;28;20617;-71
2021/03/13 16:00:05;;;;;;;1.95;1.85;;;6.50;99.90;;;;;;5106844;28;20204;-71
2021/03/13 16:02:31;;;;;;;2.53;2.42;;;6.40;99.90;;;;;;5110320;28;20203;-71
2021/03/13 16:04:58;;;;;;;3.00;2.10;;;6.40;99.90;;;;;;5106662;27;20224;-70
2021/03/13 16:07:24;;;;;;;1.95;1.80;;;6.40;99.90;;;;;;5104589;28;20230;-70
2021/03/13 16:09:51;;;;;;;17.90;9.05;;;6.40;99.90;;;;;;5111813;28;20256;-71
2021/03/13 16:12:17;;;;;;;24.23;10.55;;;6.40;99.90;;;;;;5109763;28;20223;-71
2021/03/13 16:14:43;;;;;;;12.27;8.25;;;6.40;99.90;;;;;;5111574;28;20203;-71
2021/03/13 16:17:09;;;;;;;6.78;6.18;;;6.40;99.90;;;;;;5109506;28;20660;-71
2021/03/13 16:19:36;;;;;;;4.90;2.65;;;6.50;99.90;;;;;;5102119;28;20204;-71
2021/03/13 16:22:02;;;;;;;3.80;3.28;;;6.50;99.90;;;;;;5112323;28;20238;-71
2021/03/13 16:24:29;;;;;;;9.50;6.63;;;6.50;99.90;;;;;;5111317;28;20683;-72
2021/03/13 16:26:56;;;;;;;4.18;2.30;;;6.50;99.90;;;;;;5114024;28;20272;-71
2021/03/13 16:29:22;;;;;;;5.85;3.65;;;6.50;99.90;;;;;;5107050;28;20200;-72
2021/03/13 16:31:49;;;;;;;5.07;2.92;;;6.50;99.90;;;;;;5118467;28;20629;-71
2021/03/13 16:34:16;;;;;;;11.70;5.45;;;6.60;99.90;;;;;;5117440;28;20196;-71
2021/03/13 16:36:42;;;;;;;3.67;3.38;;;6.60;99.90;;;;;;5116605;28;20200;-70
2021/03/13 16:39:08;;;;;;;5.45;3.00;;;6.60;99.90;;;;;;5112587;28;20208;-70
2021/03/13 16:41:36;;;;;;;4.30;3.40;;;6.60;99.90;;;;;;5106423;28;20259;-71
2021/03/13 16:44:04;;;;;;;8.98;5.40;;;6.60;99.90;;;;;;5112025;28;20203;-70
2021/03/13 16:46:31;;;;;;;6.22;4.65;;;6.60;99.90;;;;;;5105966;28;20524;-69
2021/03/13 16:48:57;;;;;;;6.82;3.70;;;6.60;99.90;;;;;;5114377;28;20211;-70
2021/03/13 16:51:24;;;;;;;9.10;5.28;;;6.50;99.90;;;;;;5104758;28;20573;-70
2021/03/13 16:53:50;;;;;;;2.60;2.40;;;6.50;99.90;;;;;;5115971;28;20192;-70
2021/03/13 16:56:16;;;;;;;4.45;3.45;;;6.40;99.90;;;;;;5115221;28;20200;-69
2021/03/13 16:58:43;;;;;;;2.63;2.50;;;6.40;99.90;;;;;;5115570;28;20203;-69
2021/03/13 17:01:10;;;;;;;6.07;2.08;;;6.40;99.90;;;;;;5105819;28;20223;-68
2021/03/13 17:03:36;;;;;;;4.20;3.20;;;6.30;99.90;;;;;;5114792;28;20223;-70
2021/03/13 17:06:02;;;;;;;4.63;4.32;;;6.30;99.90;;;;;;5109293;28;20226;-70
2021/03/13 17:08:29;;;;;;;4.97;2.70;;;6.30;99.90;;;;;;5095904;28;20675;-70
2021/03/13 17:10:55;;;;;;;2.80;2.70;;;6.30;99.90;;;;;;5110794;28;20219;-70
2021/03/13 17:13:21;;;;;;;2.47;2.33;;;6.30;99.90;;;;;;5116785;28;20724;-70
2021/03/13 17:15:49;;;;;;;2.20;1.95;;;6.30;99.90;;;;;;5110214;28;20550;-70
2021/03/13 17:18:16;;;;;;;4.18;3.38;;;6.30;99.90;;;;;;5096248;28;20224;-70
2021/03/13 17:20:42;;;;;;;2.70;2.30;;;6.30;99.90;;;;;;5109810;27;20268;-70
2021/03/13 17:23:09;;;;;;;2.35;1.92;;;6.30;99.90;;;;;;5114813;28;20204;-71
2021/03/13 17:25:35;;;;;;;1.85;1.75;;;6.30;99.90;;;;;;5106357;28;20217;-70
2021/03/13 17:28:01;;;;;;;1.55;1.50;;;6.30;99.90;;;;;;5115551;28;20268;-71
2021/03/13 17:30:28;;;;;;;5.43;2.78;;;6.30;99.90;;;;;;5110749;28;20231;-70
2021/03/13 17:32:54;;;;;;;2.10;2.00;;;6.30;99.90;;;;;;5107169;28;20212;-70
2021/03/13 17:35:21;;;;;;;3.15;1.52;;;6.30;99.90;;;;;;5095940;28;20203;-70
2021/03/13 17:37:48;;;;;;;2.47;2.35;;;6.30;99.90;;;;;;5098851;28;20694;-70
2021/03/13 17:40:15;;;;;;;1.92;1.83;;;6.40;99.90;;;;;;5095692;28;20625;-70
2021/03/13 17:42:41;;;;;;;1.85;1.70;;;6.40;99.90;;;;;;5095798;28;20204;-71
2021/03/13 17:45:09;;;;;;;4.60;1.70;;;6.40;99.90;;;;;;5105630;27;20239;-70
2021/03/13 17:47:36;;;;;;;1.33;1.15;;;6.50;99.90;;;;;;5096634;28;20196;-70
2021/03/13 17:50:04;;;;;;;3.70;1.55;;;6.50;99.90;;;;;;5099178;27;20283;-70
2021/03/13 17:52:31;;;;;;;1.65;1.55;;;6.50;99.90;;;;;;5108351;28;20229;-70
2021/03/13 17:54:57;;;;;;;1.20;1.20;;;6.50;99.90;;;;;;5106093;28;20238;-71
2021/03/13 17:57:23;;;;;;;1.38;1.30;;;6.50;99.90;;;;;;5097337;28;20718;-70
2021/03/13 17:59:50;;;;;;;1.25;1.25;;;6.50;99.90;;;;;;5109816;27;20215;-69
2021/03/13 18:02:16;;;;;;;1.63;1.05;;;6.50;99.90;;;;;;5110613;28;20231;-70
2021/03/13 18:04:42;;;;;;;2.05;1.20;;;6.60;99.90;;;;;;5113092;28;20533;-69